createdAt,value
2022-11-15T00:00:41.407Z,21.30
2022-11-15T00:03:30.525Z,21.30
2022-11-15T00:06:20.036Z,21.30
2022-11-15T00:09:12.570Z,21.30
2022-11-15T00:12:01.193Z,21.30
2022-11-15T00:14:49.723Z,21.30
2022-11-15T00:17:37.570Z,21.30
2022-11-15T00:20:25.923Z,21.20
2022-11-15T00:23:14.241Z,21.30
2022-11-15T00:26:02.467Z,21.30
2022-11-15T00:28:51.331Z,21.40
2022-11-15T00:31:40.253Z,21.40
2022-11-15T00:34:28.458Z,21.50
2022-11-15T00:37:17.044Z,21.50
2022-11-15T00:40:16.953Z,21.60
2022-11-15T00:43:05.479Z,21.70
2022-11-15T00:45:53.804Z,21.70
2022-11-15T00:48:41.766Z,21.70
2022-11-15T00:51:29.663Z,21.50
2022-11-15T00:54:17.921Z,21.50
2022-11-15T00:57:06.209Z,21.40
2022-11-15T00:59:54.452Z,21.50
2022-11-15T01:02:42.877Z,21.50
2022-11-15T01:05:32.871Z,21.60
2022-11-15T01:08:20.949Z,21.50
2022-11-15T01:11:17.101Z,21.40
2022-11-15T01:14:05.420Z,21.60
2022-11-15T01:16:53.746Z,21.70
2022-11-15T01:19:42.112Z,21.50
2022-11-15T01:22:30.303Z,21.20
2022-11-15T01:25:18.714Z,20.90
2022-11-15T01:28:06.919Z,20.90
2022-11-15T01:30:55.679Z,20.90
2022-11-15T01:33:44.322Z,21.00
2022-11-15T01:36:32.509Z,21.00
2022-11-15T01:39:20.784Z,21.00
2022-11-15T01:42:11.471Z,21.10
2022-11-15T01:44:59.690Z,21.10
2022-11-15T01:47:53.746Z,21.00
2022-11-15T01:50:42.422Z,21.10
2022-11-15T01:53:31.056Z,21.10
2022-11-15T01:56:22.706Z,21.20
2022-11-15T01:59:10.858Z,21.10
2022-11-15T02:01:59.294Z,21.10
2022-11-15T02:04:51.880Z,21.20
2022-11-15T02:07:40.206Z,21.20
2022-11-15T02:10:28.729Z,21.20
2022-11-15T02:13:17.815Z,21.20
2022-11-15T02:16:35.824Z,21.30
2022-11-15T02:19:55.083Z,21.30
2022-11-15T02:22:58.605Z,21.20
2022-11-15T02:25:54.507Z,21.20
2022-11-15T02:28:52.016Z,21.20
2022-11-15T02:31:55.368Z,21.20
2022-11-15T02:35:04.869Z,21.20
2022-11-15T02:37:55.855Z,21.40
2022-11-15T02:40:54.513Z,21.40
2022-11-15T02:44:03.866Z,21.50
2022-11-15T02:47:15.382Z,21.50
2022-11-15T02:50:10.299Z,21.40
2022-11-15T02:52:58.487Z,21.30
2022-11-15T02:55:52.633Z,21.30
2022-11-15T02:59:00.411Z,21.30
2022-11-15T03:01:53.261Z,21.40
2022-11-15T03:04:53.483Z,21.30
2022-11-15T03:07:44.671Z,21.30
2022-11-15T03:10:57.478Z,21.30
2022-11-15T03:14:05.578Z,21.30
2022-11-15T03:17:02.962Z,21.30
2022-11-15T03:19:53.131Z,21.30
2022-11-15T03:22:44.260Z,21.30
2022-11-15T03:25:32.215Z,21.30
2022-11-15T03:28:23.860Z,21.30
2022-11-15T03:31:29.923Z,21.40
2022-11-15T03:34:21.183Z,21.50
2022-11-15T03:37:09.717Z,21.40
2022-11-15T03:39:57.625Z,21.40
2022-11-15T03:43:09.813Z,21.40
2022-11-15T03:46:05.743Z,21.50
2022-11-15T03:48:56.584Z,21.50
2022-11-15T03:51:45.034Z,21.40
2022-11-15T03:54:33.721Z,21.50
2022-11-15T03:57:22.565Z,21.50
2022-11-15T04:00:12.053Z,21.50
2022-11-15T04:03:03.488Z,21.50
2022-11-15T04:05:52.043Z,21.60
2022-11-15T04:08:40.418Z,21.50
2022-11-15T04:11:30.309Z,21.60
2022-11-15T04:14:19.117Z,21.70
2022-11-15T04:17:08.287Z,21.60
2022-11-15T04:20:14.925Z,21.70
2022-11-15T04:23:24.408Z,21.80
2022-11-15T04:26:19.888Z,21.70
2022-11-15T04:29:26.511Z,21.70
2022-11-15T04:32:15.232Z,21.70
2022-11-15T04:35:03.463Z,21.90
2022-11-15T04:38:00.576Z,22.00
2022-11-15T04:40:49.845Z,21.90
2022-11-15T04:43:41.149Z,22.00
2022-11-15T04:46:30.344Z,22.00
2022-11-15T04:49:19.248Z,22.00
2022-11-15T04:52:07.608Z,22.00
2022-11-15T04:55:21.846Z,22.10
2022-11-15T04:58:16.942Z,22.10
2022-11-15T05:01:22.699Z,22.10
2022-11-15T05:04:32.924Z,22.30
2022-11-15T05:07:29.724Z,22.20
2022-11-15T05:10:27.770Z,22.20
2022-11-15T05:13:36.181Z,22.10
2022-11-15T05:16:27.285Z,22.30
2022-11-15T05:19:21.654Z,22.20
2022-11-15T05:22:11.256Z,22.30
2022-11-15T05:24:59.437Z,22.30
2022-11-15T05:27:47.269Z,22.40
2022-11-15T05:30:38.981Z,22.40
2022-11-15T05:33:28.430Z,22.50
2022-11-15T05:36:28.824Z,22.60
2022-11-15T05:39:17.047Z,22.80
2022-11-15T05:42:14.032Z,23.00
2022-11-15T05:45:05.392Z,23.10
2022-11-15T05:47:54.365Z,23.20
2022-11-15T05:50:43.948Z,23.40
2022-11-15T05:53:33.174Z,23.30
2022-11-15T05:56:21.753Z,23.30
2022-11-15T05:59:10.850Z,23.30
2022-11-15T06:01:59.626Z,23.40
2022-11-15T06:04:47.944Z,23.50
2022-11-15T06:07:36.164Z,23.70
2022-11-15T06:10:26.480Z,23.90
2022-11-15T06:13:14.960Z,23.90
2022-11-15T06:16:03.219Z,23.90
2022-11-15T06:18:51.959Z,23.90
2022-11-15T06:21:40.098Z,24.00
2022-11-15T06:24:33.998Z,24.10
2022-11-15T06:27:22.011Z,24.20
2022-11-15T06:30:11.777Z,24.20
2022-11-15T06:33:07.095Z,24.30
2022-11-15T06:35:57.287Z,24.40
2022-11-15T06:38:46.319Z,24.50
2022-11-15T06:41:37.447Z,24.50
2022-11-15T06:44:26.161Z,24.60
2022-11-15T06:47:14.122Z,24.60
2022-11-15T06:50:02.194Z,24.60
2022-11-15T06:52:50.287Z,24.70
2022-11-15T06:55:46.523Z,24.70
2022-11-15T06:58:35.786Z,24.80
2022-11-15T07:01:38.312Z,24.80
2022-11-15T07:04:26.467Z,24.90
2022-11-15T07:07:14.383Z,24.90
2022-11-15T07:10:02.704Z,24.90
2022-11-15T07:12:51.408Z,25.00
2022-11-15T07:15:40.034Z,25.10
2022-11-15T07:18:29.584Z,25.20
2022-11-15T07:21:17.701Z,25.30
2022-11-15T07:24:06.275Z,25.40
2022-11-15T07:26:54.737Z,25.30
2022-11-15T07:29:43.280Z,25.50
2022-11-15T07:32:31.593Z,25.60
2022-11-15T07:35:19.999Z,25.70
2022-11-15T07:38:08.376Z,25.80
2022-11-15T07:41:00.389Z,25.90
2022-11-15T07:43:48.525Z,25.90
2022-11-15T07:46:38.207Z,26.00
2022-11-15T07:49:27.043Z,26.10
2022-11-15T07:52:16.105Z,26.10
2022-11-15T07:55:05.005Z,26.20
2022-11-15T07:57:58.117Z,26.30
2022-11-15T08:00:46.588Z,26.40
2022-11-15T08:03:35.524Z,26.40
2022-11-15T08:06:24.422Z,26.40
2022-11-15T08:09:13.340Z,26.10
2022-11-15T08:12:01.387Z,25.90
2022-11-15T08:14:50.803Z,25.70
2022-11-15T08:17:39.894Z,25.70
2022-11-15T08:20:33.469Z,25.90
2022-11-15T08:23:21.585Z,26.10
2022-11-15T08:26:10.937Z,26.20
2022-11-15T08:29:12.107Z,26.20
2022-11-15T08:32:00.459Z,26.10
2022-11-15T08:34:48.786Z,25.80
2022-11-15T08:37:37.642Z,25.70
2022-11-15T08:40:29.266Z,25.50
2022-11-15T08:43:17.370Z,25.50
2022-11-15T08:46:05.926Z,25.40
2022-11-15T08:48:54.142Z,25.30
2022-11-15T08:51:41.994Z,25.30
2022-11-15T08:54:30.183Z,25.20
2022-11-15T08:57:18.443Z,25.20
2022-11-15T09:00:07.448Z,25.10
2022-11-15T09:02:55.416Z,25.10
2022-11-15T09:05:44.152Z,25.00
2022-11-15T09:08:57.362Z,24.90
2022-11-15T09:11:43.403Z,24.80
2022-11-15T09:14:31.688Z,24.70
2022-11-15T09:17:25.139Z,24.60
2022-11-15T09:20:18.091Z,24.60
2022-11-15T09:23:06.869Z,24.50
2022-11-15T09:25:55.439Z,24.40
2022-11-15T09:28:44.887Z,24.30
2022-11-15T09:31:33.030Z,24.20
2022-11-15T09:34:21.476Z,24.20
2022-11-15T09:37:09.485Z,24.10
2022-11-15T09:39:57.954Z,24.10
2022-11-15T09:43:14.278Z,24.00
2022-11-15T09:46:17.972Z,24.00
2022-11-15T09:49:09.410Z,24.00
2022-11-15T09:52:10.299Z,24.00
2022-11-15T09:54:56.702Z,24.00
2022-11-15T09:57:53.171Z,24.00
2022-11-15T10:00:48.746Z,24.00
2022-11-15T10:03:29.397Z,23.90
2022-11-15T10:06:04.956Z,23.90
2022-11-15T10:08:50.000Z,23.90
2022-11-15T10:11:37.128Z,23.80
2022-11-15T10:14:24.921Z,23.80
2022-11-15T10:17:22.362Z,23.80
2022-11-15T10:20:27.347Z,23.70
2022-11-15T10:23:06.283Z,23.60
2022-11-15T10:25:41.952Z,23.60
2022-11-15T10:28:34.013Z,23.70
2022-11-15T10:31:04.714Z,23.60
2022-11-15T10:33:36.409Z,23.60
2022-11-15T10:36:16.888Z,23.60
2022-11-15T10:38:53.067Z,23.60
2022-11-15T10:41:34.790Z,23.60
2022-11-15T10:44:21.101Z,23.50
2022-11-15T10:47:06.724Z,23.60
2022-11-15T10:49:55.127Z,23.40
2022-11-15T10:52:26.437Z,23.50
2022-11-15T10:55:04.564Z,23.40
2022-11-15T10:57:38.400Z,23.40
2022-11-15T11:00:23.738Z,23.40
2022-11-15T11:03:02.196Z,23.40
2022-11-15T11:05:41.835Z,23.30
2022-11-15T11:08:18.807Z,23.30
2022-11-15T11:11:02.767Z,23.30
2022-11-15T11:13:41.460Z,23.30
2022-11-15T11:16:17.289Z,23.30
2022-11-15T11:18:53.163Z,23.30
2022-11-15T11:21:38.421Z,23.40
2022-11-15T11:24:18.524Z,23.30
2022-11-15T11:27:20.784Z,23.20
2022-11-15T11:30:25.957Z,23.20
2022-11-15T11:33:02.368Z,23.20
2022-11-15T11:36:02.867Z,23.20
2022-11-15T11:38:56.203Z,23.20
2022-11-15T11:41:44.182Z,23.20
2022-11-15T11:44:38.321Z,23.10
2022-11-15T11:47:17.512Z,23.20
2022-11-15T11:49:53.692Z,23.10
2022-11-15T11:52:26.399Z,23.10
2022-11-15T11:55:17.797Z,23.10
2022-11-15T11:57:54.777Z,23.10
2022-11-15T12:00:26.163Z,23.00
2022-11-15T12:03:22.484Z,23.00
2022-11-15T12:06:05.033Z,23.00
2022-11-15T12:08:50.149Z,22.90
2022-11-15T12:11:39.959Z,22.80
2022-11-15T12:14:29.600Z,22.60
2022-11-15T12:17:00.986Z,22.50
2022-11-15T12:19:32.184Z,22.50
2022-11-15T12:22:13.366Z,22.50
2022-11-15T12:24:58.876Z,22.50
2022-11-15T12:27:39.627Z,22.50
2022-11-15T12:30:21.204Z,22.50
2022-11-15T12:32:58.813Z,22.50
2022-11-15T12:35:35.141Z,22.40
2022-11-15T12:38:05.020Z,22.30
2022-11-15T12:40:42.161Z,22.30
2022-11-15T12:43:18.364Z,22.30
2022-11-15T12:45:49.622Z,22.30
2022-11-15T12:48:19.520Z,22.30
2022-11-15T12:50:57.993Z,22.20
2022-11-15T12:53:28.633Z,22.20
2022-11-15T12:56:11.975Z,22.10
2022-11-15T12:58:55.665Z,22.20
2022-11-15T13:01:38.382Z,22.20
2022-11-15T13:04:28.269Z,22.20
2022-11-15T13:07:05.983Z,22.20
2022-11-15T13:09:39.069Z,22.10
2022-11-15T13:12:15.821Z,22.10
2022-11-15T13:14:48.184Z,22.10
2022-11-15T13:17:30.252Z,22.10
2022-11-15T13:20:09.365Z,22.10
2022-11-15T13:23:01.577Z,22.10
2022-11-15T13:25:59.278Z,22.10
2022-11-15T13:28:36.786Z,22.00
2022-11-15T13:31:24.517Z,22.00
2022-11-15T13:33:55.386Z,22.00
2022-11-15T13:36:27.084Z,21.90
2022-11-15T13:39:07.924Z,21.80
2022-11-15T13:41:39.008Z,21.80
2022-11-15T13:44:22.327Z,21.80
2022-11-15T13:47:29.795Z,21.70
2022-11-15T13:50:00.435Z,21.80
2022-11-15T13:52:34.199Z,21.70
2022-11-15T13:55:28.809Z,21.60
2022-11-15T13:58:01.098Z,21.60
2022-11-15T14:00:42.330Z,21.60
2022-11-15T14:03:20.272Z,21.60
2022-11-15T14:06:14.597Z,21.60
2022-11-15T14:09:00.548Z,21.50
2022-11-15T14:11:30.713Z,21.50
2022-11-15T14:14:15.691Z,21.40
2022-11-15T14:16:54.603Z,21.40
2022-11-15T14:19:27.886Z,21.40
2022-11-15T14:22:35.760Z,21.40
2022-11-15T14:25:10.362Z,21.30
2022-11-15T14:27:40.233Z,21.40
2022-11-15T14:30:18.630Z,21.40
2022-11-15T14:32:50.276Z,21.50
2022-11-15T14:35:22.320Z,21.40
2022-11-15T14:37:52.400Z,21.30
2022-11-15T14:40:23.630Z,21.30
2022-11-15T14:42:53.679Z,21.30
2022-11-15T14:45:24.323Z,21.30
2022-11-15T14:47:54.233Z,21.40
2022-11-15T14:50:24.446Z,21.30
2022-11-15T14:52:54.553Z,21.20
2022-11-15T14:55:38.072Z,21.30
2022-11-15T14:58:10.177Z,21.30
2022-11-15T15:00:41.454Z,21.30
2022-11-15T15:03:11.487Z,21.20
2022-11-15T15:05:45.215Z,21.30
2022-11-15T15:08:15.199Z,21.30
2022-11-15T15:10:47.192Z,21.30
2022-11-15T15:13:26.464Z,21.20
2022-11-15T15:15:56.380Z,21.20
2022-11-15T15:18:26.401Z,21.20
2022-11-15T15:21:05.493Z,21.20
2022-11-15T15:23:37.715Z,21.10
2022-11-15T15:26:07.718Z,21.10
2022-11-15T15:28:38.061Z,21.10
2022-11-15T15:31:08.422Z,21.10
2022-11-15T15:33:39.593Z,21.10
2022-11-15T15:36:14.459Z,21.10
2022-11-15T15:38:45.570Z,21.10
2022-11-15T15:41:18.665Z,21.10
2022-11-15T15:43:49.594Z,21.10
2022-11-15T15:46:20.897Z,21.00
2022-11-15T15:48:50.986Z,21.10
2022-11-15T15:51:21.175Z,21.00
2022-11-15T15:53:52.823Z,21.00
2022-11-15T15:56:23.009Z,21.10
2022-11-15T15:58:54.750Z,21.00
2022-11-15T16:01:25.511Z,21.10
2022-11-15T16:03:56.408Z,21.10
2022-11-15T16:06:38.454Z,21.00
2022-11-15T16:09:15.243Z,21.00
2022-11-15T16:11:47.509Z,21.00
2022-11-15T16:14:18.225Z,21.00
2022-11-15T16:16:48.466Z,20.90
2022-11-15T16:19:19.698Z,21.00
2022-11-15T16:21:50.099Z,21.00
2022-11-15T16:24:20.618Z,20.90
2022-11-15T16:26:51.141Z,20.90
2022-11-15T16:29:21.203Z,20.90
2022-11-15T16:31:51.528Z,20.90
2022-11-15T16:34:22.089Z,20.90
2022-11-15T16:36:52.244Z,20.90
2022-11-15T16:39:22.675Z,20.90
2022-11-15T16:41:52.610Z,20.90
2022-11-15T16:44:22.593Z,20.80
2022-11-15T16:46:55.508Z,20.80
2022-11-15T16:49:25.862Z,20.80
2022-11-15T16:51:55.902Z,20.90
2022-11-15T16:54:26.482Z,20.80
2022-11-15T16:56:56.862Z,20.80
2022-11-15T16:59:27.596Z,20.80
2022-11-15T17:01:57.532Z,20.80
2022-11-15T17:04:33.919Z,20.80
2022-11-15T17:07:04.183Z,20.80
2022-11-15T17:09:35.633Z,20.80
2022-11-15T17:12:06.200Z,20.80
2022-11-15T17:14:36.432Z,20.80
2022-11-15T17:17:06.351Z,20.90
2022-11-15T17:19:37.027Z,20.80
2022-11-15T17:22:07.258Z,20.80
2022-11-15T17:24:37.880Z,20.80
2022-11-15T17:27:08.375Z,20.70
2022-11-15T17:29:38.502Z,20.70
2022-11-15T17:32:08.692Z,20.70
2022-11-15T17:34:39.069Z,20.70
2022-11-15T17:37:09.016Z,20.70
2022-11-15T17:39:39.424Z,20.70
2022-11-15T17:42:09.474Z,20.70
2022-11-15T17:44:39.421Z,20.70
2022-11-15T17:47:09.731Z,20.70
2022-11-15T17:49:42.098Z,20.70
2022-11-15T17:52:12.426Z,20.70
2022-11-15T17:54:43.050Z,20.70
2022-11-15T17:57:13.177Z,20.70
2022-11-15T17:59:43.704Z,20.70
2022-11-15T18:02:13.782Z,20.60
2022-11-15T18:04:43.793Z,20.60
2022-11-15T18:07:15.086Z,20.60
2022-11-15T18:09:45.970Z,20.60
2022-11-15T18:12:16.256Z,20.60
2022-11-15T18:14:46.250Z,20.60
2022-11-15T18:17:16.199Z,20.60
2022-11-15T18:19:47.182Z,20.50
2022-11-15T18:22:17.668Z,20.50
2022-11-15T18:24:48.368Z,20.60
2022-11-15T18:27:18.406Z,20.50
2022-11-15T18:29:48.704Z,20.40
2022-11-15T18:32:18.964Z,20.50
2022-11-15T18:34:49.275Z,20.40
2022-11-15T18:37:19.198Z,20.60
2022-11-15T18:39:52.878Z,20.50
2022-11-15T18:42:24.174Z,20.50
2022-11-15T18:44:54.105Z,20.50
2022-11-15T18:47:23.999Z,20.50
2022-11-15T18:49:54.292Z,20.50
2022-11-15T18:52:24.211Z,20.40
2022-11-15T18:54:54.178Z,20.40
2022-11-15T18:57:24.108Z,20.40
2022-11-15T18:59:54.029Z,20.40
2022-11-15T19:02:23.909Z,20.40
2022-11-15T19:04:54.444Z,20.40
2022-11-15T19:07:24.542Z,20.40
2022-11-15T19:09:54.464Z,20.50
2022-11-15T19:12:24.393Z,20.40
2022-11-15T19:14:54.350Z,20.40
2022-11-15T19:17:24.278Z,20.40
2022-11-15T19:19:54.397Z,20.40
2022-11-15T19:22:24.685Z,20.40
2022-11-15T19:24:54.591Z,20.40
2022-11-15T19:27:24.512Z,20.40
2022-11-15T19:29:54.495Z,20.40
2022-11-15T19:32:24.380Z,20.30
2022-11-15T19:34:54.313Z,20.30
2022-11-15T19:37:24.297Z,20.30
2022-11-15T19:39:54.267Z,20.40
2022-11-15T19:42:24.199Z,20.40
2022-11-15T19:44:54.177Z,20.30
2022-11-15T19:47:24.131Z,20.30
2022-11-15T19:49:54.037Z,20.20
2022-11-15T19:52:25.446Z,20.20
2022-11-15T19:54:56.012Z,20.20
2022-11-15T19:57:26.072Z,20.30
2022-11-15T19:59:56.629Z,20.10
2022-11-15T20:02:26.647Z,20.20
2022-11-15T20:04:57.300Z,20.20
2022-11-15T20:07:27.193Z,20.20
2022-11-15T20:09:57.160Z,20.10
2022-11-15T20:12:27.025Z,20.10
2022-11-15T20:14:56.955Z,20.20
2022-11-15T20:17:26.987Z,20.20
2022-11-15T20:19:57.547Z,20.20
2022-11-15T20:22:27.815Z,20.20
2022-11-15T20:24:58.048Z,20.20
2022-11-15T20:27:28.277Z,20.20
2022-11-15T20:29:59.635Z,20.10
2022-11-15T20:32:29.708Z,20.10
2022-11-15T20:34:59.786Z,20.20
2022-11-15T20:37:29.688Z,20.20
2022-11-15T20:39:59.881Z,20.20
2022-11-15T20:42:29.983Z,20.20
2022-11-15T20:45:00.531Z,20.20
2022-11-15T20:47:32.901Z,20.20
2022-11-15T20:50:27.707Z,20.20
2022-11-15T20:52:54.250Z,20.20
2022-11-15T20:55:24.720Z,20.10
2022-11-15T20:57:54.843Z,20.10
2022-11-15T21:00:27.276Z,20.10
2022-11-15T21:02:58.522Z,20.10
2022-11-15T21:05:28.701Z,20.10
2022-11-15T21:07:58.885Z,20.10
2022-11-15T21:10:47.325Z,20.10
2022-11-15T21:13:17.484Z,20.10
2022-11-15T21:15:47.601Z,20.00
2022-11-15T21:18:18.587Z,20.00
2022-11-15T21:20:49.205Z,20.10
2022-11-15T21:23:19.206Z,20.10
2022-11-15T21:25:52.963Z,20.00
2022-11-15T21:28:23.056Z,20.00
2022-11-15T21:30:58.530Z,20.00
2022-11-15T21:33:29.248Z,19.90
2022-11-15T21:35:59.643Z,20.00
2022-11-15T21:38:30.662Z,20.00
2022-11-15T21:41:04.077Z,20.00
2022-11-15T21:43:34.027Z,20.00
2022-11-15T21:46:05.686Z,19.90
2022-11-15T21:48:36.719Z,20.00
2022-11-15T21:51:08.778Z,19.90
2022-11-15T21:53:38.990Z,20.00
2022-11-15T21:56:09.443Z,20.00
2022-11-15T21:58:40.620Z,20.00
2022-11-15T22:01:31.006Z,20.00
2022-11-15T22:04:01.700Z,20.00
2022-11-15T22:06:31.642Z,20.00
2022-11-15T22:09:01.629Z,19.90
2022-11-15T22:11:32.288Z,20.00
2022-11-15T22:14:02.461Z,19.90
2022-11-15T22:16:33.111Z,19.90
2022-11-15T22:19:03.433Z,19.80
2022-11-15T22:21:34.082Z,19.90
2022-11-15T22:24:04.714Z,19.90
2022-11-15T22:26:34.793Z,19.90
2022-11-15T22:29:04.771Z,19.90
2022-11-15T22:31:35.382Z,20.00
2022-11-15T22:34:05.779Z,19.90
2022-11-15T22:36:47.225Z,20.00
2022-11-15T22:39:25.774Z,19.90
2022-11-15T22:41:56.750Z,19.90
2022-11-15T22:44:26.618Z,19.80
2022-11-15T22:46:56.641Z,19.80
2022-11-15T22:49:26.646Z,19.80
2022-11-15T22:51:56.721Z,19.80
2022-11-15T22:54:26.865Z,19.80
2022-11-15T22:56:57.477Z,19.80
2022-11-15T22:59:27.472Z,19.70
2022-11-15T23:01:57.451Z,19.80
2022-11-15T23:04:27.793Z,19.80
2022-11-15T23:06:58.207Z,19.80
2022-11-15T23:09:28.285Z,19.90
2022-11-15T23:12:17.353Z,19.90
2022-11-15T23:14:47.523Z,19.80
2022-11-15T23:17:17.575Z,19.80
2022-11-15T23:19:47.659Z,19.80
2022-11-15T23:22:35.960Z,19.90
2022-11-15T23:25:06.238Z,19.80
2022-11-15T23:27:36.275Z,19.80
2022-11-15T23:30:25.199Z,19.80
2022-11-15T23:33:13.486Z,19.70
2022-11-15T23:35:43.541Z,19.80
2022-11-15T23:38:13.591Z,19.80
2022-11-15T23:40:43.638Z,19.70
2022-11-15T23:43:13.595Z,19.80
2022-11-15T23:45:43.511Z,19.80
2022-11-15T23:48:13.576Z,19.70
2022-11-15T23:50:43.634Z,19.70
2022-11-15T23:53:14.509Z,19.80
2022-11-15T23:55:45.429Z,19.70
2022-11-15T23:58:16.310Z,19.70
